createdAt,value
2023-04-21T00:01:15.143Z,53.80
2023-04-21T00:05:25.167Z,99.90
2023-04-21T00:09:34.005Z,99.90
2023-04-21T00:13:42.729Z,99.90
2023-04-21T00:17:51.839Z,98.00
2023-04-21T00:22:01.160Z,1.00
2023-04-21T00:26:09.875Z,1.00
2023-04-21T00:30:18.925Z,1.00
2023-04-21T00:34:27.641Z,1.00
2023-04-21T00:38:36.556Z,1.00
2023-04-21T00:42:45.108Z,1.00
2023-04-21T00:46:53.873Z,1.00
2023-04-21T00:51:05.679Z,9.70
2023-04-21T00:55:15.039Z,43.10
2023-04-21T00:59:23.686Z,39.40
2023-04-21T01:03:32.963Z,99.90
2023-04-21T01:07:43.867Z,99.90
2023-04-21T01:12:32.693Z,99.90
2023-04-21T01:16:41.468Z,99.90
2023-04-21T01:20:51.078Z,99.90
2023-04-21T01:24:59.701Z,1.00
2023-04-21T01:29:08.326Z,1.00
2023-04-21T01:33:17.916Z,1.00
2023-04-21T01:37:51.398Z,1.00
2023-04-21T01:42:01.762Z,1.00
2023-04-21T01:46:10.738Z,1.00
2023-04-21T01:50:19.500Z,1.00
2023-04-21T01:54:28.268Z,1.00
2023-04-21T01:58:36.904Z,28.30
2023-04-21T02:02:45.670Z,1.00
2023-04-21T02:06:54.290Z,99.90
2023-04-21T02:11:03.368Z,99.90
2023-04-21T02:15:12.646Z,1.00
2023-04-21T02:19:21.461Z,1.00
2023-04-21T02:23:30.303Z,99.90
2023-04-21T02:27:38.937Z,99.90
2023-04-21T02:31:58.907Z,99.90
2023-04-21T02:35:57.825Z,99.90
2023-04-21T02:40:07.654Z,99.90
2023-04-21T02:44:18.282Z,99.90
2023-04-21T02:48:26.898Z,99.90
2023-04-21T02:52:38.433Z,99.90
2023-04-21T02:56:47.213Z,99.90
2023-04-21T03:00:57.203Z,1.00
2023-04-21T03:05:06.437Z,1.00
2023-04-21T03:09:15.151Z,1.00
2023-04-21T03:13:25.803Z,1.00
2023-04-21T03:17:34.591Z,99.90
2023-04-21T03:21:43.285Z,1.00
2023-04-21T03:25:51.915Z,99.90
2023-04-21T03:30:00.658Z,1.00
2023-04-21T03:34:09.296Z,99.90
2023-04-21T03:38:17.913Z,1.00
2023-04-21T03:42:26.771Z,99.90
2023-04-21T03:46:35.481Z,99.90
2023-04-21T03:50:44.073Z,1.00
2023-04-21T03:54:52.922Z,99.90
2023-04-21T03:59:01.578Z,1.00
2023-04-21T04:03:10.494Z,1.00
2023-04-21T04:07:19.289Z,1.00
2023-04-21T04:11:27.898Z,1.00
2023-04-21T04:15:36.517Z,4.10
2023-04-21T04:19:45.145Z,27.40
2023-04-21T04:23:53.842Z,99.90
2023-04-21T04:28:02.880Z,99.90
2023-04-21T04:32:11.612Z,99.90
2023-04-21T04:36:20.241Z,1.00
2023-04-21T04:40:29.786Z,1.00
2023-04-21T04:44:38.419Z,1.00
2023-04-21T04:48:49.891Z,99.90
2023-04-21T04:52:58.515Z,99.90
2023-04-21T04:57:07.172Z,1.00
2023-04-21T05:01:17.441Z,1.00
2023-04-21T05:05:26.407Z,1.00
2023-04-21T05:09:35.876Z,1.00
2023-04-21T05:13:44.558Z,1.00
2023-04-21T05:17:53.241Z,1.00
2023-04-21T05:22:01.811Z,1.00
2023-04-21T05:26:10.409Z,1.00
2023-04-21T05:30:19.024Z,1.00
2023-04-21T05:34:27.626Z,1.00
2023-04-21T05:38:37.350Z,99.90
2023-04-21T05:42:45.987Z,99.90
2023-04-21T05:46:54.620Z,1.00
2023-04-21T05:51:11.674Z,1.00
2023-04-21T05:55:20.452Z,1.00
2023-04-21T05:59:29.097Z,1.00
2023-04-21T06:03:37.995Z,99.90
2023-04-21T06:07:47.174Z,1.00
2023-04-21T06:11:57.030Z,1.00
2023-04-21T06:16:06.349Z,1.00
2023-04-21T06:20:15.207Z,1.00
2023-04-21T06:24:25.803Z,1.00
2023-04-21T06:28:36.142Z,1.00
2023-04-21T06:32:48.689Z,1.00
2023-04-21T06:36:57.458Z,1.00
2023-04-21T06:41:06.646Z,1.00
2023-04-21T06:45:16.809Z,1.00
2023-04-21T06:49:25.451Z,1.00
2023-04-21T06:53:34.169Z,1.00
2023-04-21T06:57:43.003Z,1.00
2023-04-21T07:01:52.464Z,1.00
2023-04-21T07:06:01.223Z,1.00
2023-04-21T07:10:10.454Z,1.00
2023-04-21T07:14:19.065Z,1.00
2023-04-21T07:18:27.948Z,1.00
2023-04-21T07:22:36.919Z,1.00
2023-04-21T07:26:45.526Z,1.00
2023-04-21T07:30:54.148Z,1.00
2023-04-21T07:35:03.449Z,1.00
2023-04-21T07:39:12.177Z,1.00
2023-04-21T07:43:20.879Z,1.00
2023-04-21T07:47:30.608Z,1.00
2023-04-21T07:51:40.265Z,1.00
2023-04-21T07:55:48.928Z,99.90
2023-04-21T07:59:57.533Z,99.90
2023-04-21T08:04:06.816Z,99.90
2023-04-21T08:08:17.159Z,1.00
2023-04-21T08:12:25.896Z,1.00
2023-04-21T08:16:34.649Z,1.00
2023-04-21T08:20:43.278Z,1.00
2023-04-21T08:24:51.901Z,99.90
2023-04-21T08:29:03.517Z,1.00
2023-04-21T08:33:13.061Z,99.90
2023-04-21T08:37:23.071Z,1.00
2023-04-21T08:41:31.726Z,1.00
2023-04-21T08:45:41.851Z,99.90
2023-04-21T08:49:52.223Z,50.00
2023-04-21T08:54:00.891Z,1.00
2023-04-21T08:58:09.929Z,1.00
2023-04-21T09:02:20.425Z,99.90
2023-04-21T09:06:32.333Z,1.00
2023-04-21T09:10:47.209Z,99.90
2023-04-21T09:14:57.754Z,99.90
2023-04-21T09:19:09.457Z,99.90
2023-04-21T09:23:18.904Z,99.90
2023-04-21T09:27:27.575Z,79.00
2023-04-21T09:31:37.341Z,92.30
2023-04-21T09:35:46.122Z,1.00
2023-04-21T09:40:04.260Z,1.00
2023-04-21T09:44:05.222Z,1.00
2023-04-21T09:48:16.514Z,1.00
2023-04-21T09:52:27.337Z,1.00
2023-04-21T09:56:40.233Z,1.00
2023-04-21T10:00:50.180Z,1.00
2023-04-21T10:04:59.685Z,1.00
2023-04-21T10:09:12.418Z,1.00
2023-04-21T10:13:22.068Z,1.00
2023-04-21T10:22:00.566Z,1.00
2023-04-21T10:26:17.894Z,1.00
2023-04-21T10:30:27.556Z,1.00
2023-04-21T10:34:38.798Z,1.00
2023-04-21T10:38:50.567Z,1.00
2023-04-21T10:42:59.170Z,1.00
2023-04-21T10:47:08.947Z,1.00
2023-04-21T10:51:17.893Z,1.00
2023-04-21T10:59:43.547Z,1.00
2023-04-21T11:03:52.945Z,1.00
2023-04-21T11:08:06.677Z,1.00
2023-04-21T11:12:19.165Z,1.00
2023-04-21T11:16:28.063Z,1.00
2023-04-21T11:20:39.944Z,1.00
2023-04-21T11:24:50.863Z,1.00
2023-04-21T11:29:02.216Z,1.00
2023-04-21T11:33:10.898Z,1.00
2023-04-21T11:37:26.042Z,1.00
2023-04-21T11:41:36.216Z,1.00
2023-04-21T11:45:44.931Z,1.00
2023-04-21T11:49:56.361Z,1.00
2023-04-21T11:54:07.552Z,1.00
2023-04-21T11:58:17.986Z,1.00
2023-04-21T12:02:31.590Z,1.00
2023-04-21T12:06:40.416Z,1.00
2023-04-21T12:10:50.277Z,1.00
2023-04-21T12:14:59.175Z,1.00
2023-04-21T12:19:07.878Z,1.00
2023-04-21T12:23:16.612Z,1.00
2023-04-21T12:27:25.235Z,1.00
2023-04-21T12:31:34.122Z,1.00
2023-04-21T12:35:42.907Z,1.00
2023-04-21T12:39:51.640Z,1.00
2023-04-21T12:44:00.375Z,1.00
2023-04-21T12:48:09.057Z,1.00
2023-04-21T12:52:17.832Z,1.00
2023-04-21T12:56:27.082Z,1.00
2023-04-21T13:00:36.457Z,1.00
2023-04-21T13:04:45.423Z,1.00
2023-04-21T13:08:54.090Z,1.00
2023-04-21T13:13:02.720Z,1.00
2023-04-21T13:17:11.781Z,1.00
2023-04-21T13:21:20.434Z,1.00
2023-04-21T13:25:29.220Z,1.00
2023-04-21T13:29:37.780Z,1.00
2023-04-21T13:33:46.488Z,1.00
2023-04-21T13:37:55.338Z,1.00
2023-04-21T13:42:04.006Z,1.00
2023-04-21T13:46:14.522Z,1.00
2023-04-21T13:50:23.488Z,1.00
2023-04-21T13:54:33.144Z,1.00
2023-04-21T13:58:42.870Z,1.00
2023-04-21T14:02:51.769Z,1.00
2023-04-21T14:07:00.753Z,1.00
2023-04-21T14:11:09.460Z,1.00
2023-04-21T14:15:18.190Z,1.00
2023-04-21T14:19:27.022Z,1.00
2023-04-21T14:23:36.324Z,1.00
2023-04-21T14:27:45.053Z,1.00
2023-04-21T14:31:55.755Z,1.00
2023-04-21T14:36:04.713Z,1.00
2023-04-21T14:40:13.472Z,1.00
2023-04-21T14:44:22.199Z,1.00
2023-04-21T14:48:31.215Z,1.00
2023-04-21T14:52:39.951Z,1.00
2023-04-21T14:56:48.569Z,1.00
2023-04-21T15:00:58.135Z,1.00
2023-04-21T15:05:09.018Z,1.00
2023-04-21T15:09:17.770Z,1.00
2023-04-21T15:13:26.676Z,1.00
2023-04-21T15:17:35.340Z,1.00
2023-04-21T15:21:44.327Z,1.00
2023-04-21T15:25:52.952Z,1.00
2023-04-21T15:30:03.167Z,1.00
2023-04-21T15:34:11.864Z,1.00
2023-04-21T15:38:21.277Z,1.00
2023-04-21T15:42:30.061Z,1.00
2023-04-21T15:46:38.794Z,1.00
2023-04-21T15:50:47.781Z,1.00
2023-04-21T15:54:56.607Z,1.00
2023-04-21T15:59:05.543Z,1.00
2023-04-21T16:03:14.298Z,1.00
2023-04-21T16:07:23.695Z,1.00
2023-04-21T16:11:34.052Z,1.00
2023-04-21T16:15:43.805Z,1.00
2023-04-21T16:19:52.601Z,1.00
2023-04-21T16:24:01.373Z,1.00
2023-04-21T16:28:11.476Z,1.00
2023-04-21T16:32:20.449Z,1.00
2023-04-21T16:40:38.863Z,1.00
2023-04-21T16:44:50.776Z,1.00
2023-04-21T16:48:59.493Z,1.00
2023-04-21T16:53:16.577Z,1.00
2023-04-21T16:57:25.388Z,1.00
2023-04-21T17:01:34.486Z,1.00
2023-04-21T17:05:43.392Z,1.00
2023-04-21T17:09:52.091Z,99.90
2023-04-21T17:14:09.546Z,99.90
2023-04-21T17:18:18.353Z,99.90
2023-04-21T17:22:27.084Z,99.90
2023-04-21T17:26:36.226Z,99.90
2023-04-21T17:30:45.076Z,99.90
2023-04-21T17:34:54.096Z,99.90
2023-04-21T17:39:40.253Z,99.90
2023-04-21T17:43:49.141Z,99.90
2023-04-21T17:47:57.832Z,99.90
2023-04-21T17:52:06.687Z,99.90
2023-04-21T17:56:23.737Z,99.90
2023-04-21T18:00:34.215Z,99.90
2023-04-21T18:04:46.444Z,99.90
2023-04-21T18:08:56.008Z,99.90
2023-04-21T18:13:06.030Z,99.90
2023-04-21T18:17:16.009Z,99.90
2023-04-21T18:21:24.821Z,99.90
2023-04-21T18:25:42.010Z,99.90
2023-04-21T18:29:43.730Z,1.00
2023-04-21T18:33:52.927Z,1.00
2023-04-21T18:38:01.711Z,1.00
2023-04-21T18:42:10.526Z,1.00
2023-04-21T18:46:19.199Z,1.00
2023-04-21T18:50:27.993Z,1.00
2023-04-21T18:54:36.866Z,1.00
2023-04-21T18:58:45.862Z,1.00
2023-04-21T19:02:54.694Z,1.00
2023-04-21T19:07:03.643Z,1.00
2023-04-21T19:11:18.243Z,1.00
2023-04-21T19:15:27.350Z,1.00
2023-04-21T19:19:35.982Z,1.00
2023-04-21T19:23:44.699Z,1.00
2023-04-21T19:27:53.325Z,1.00
2023-04-21T19:32:03.080Z,1.00
2023-04-21T19:36:11.826Z,1.00
2023-04-21T19:40:20.871Z,1.00
2023-04-21T19:44:29.582Z,1.00
2023-04-21T19:48:39.434Z,1.00
2023-04-21T19:52:48.438Z,1.00
2023-04-21T19:56:57.033Z,1.00
2023-04-21T20:01:06.099Z,1.00
2023-04-21T20:05:14.737Z,1.00
2023-04-21T20:09:23.514Z,1.00
2023-04-21T20:13:32.348Z,1.00
2023-04-21T20:17:41.911Z,1.00
2023-04-21T20:21:51.038Z,1.00
2023-04-21T20:25:59.777Z,1.00
2023-04-21T20:30:27.676Z,1.00
2023-04-21T20:34:36.296Z,1.00
2023-04-21T20:38:46.587Z,1.00
2023-04-21T20:42:55.378Z,1.00
2023-04-21T20:47:04.440Z,67.80
2023-04-21T20:51:14.471Z,99.90
2023-04-21T20:55:23.143Z,99.90
2023-04-21T20:59:31.806Z,99.90
2023-04-21T21:17:28.019Z,99.90
2023-04-21T21:21:36.718Z,99.90
2023-04-21T21:25:45.678Z,99.90
2023-04-21T21:29:54.310Z,99.90
2023-04-21T21:34:03.918Z,99.90
2023-04-21T21:38:12.559Z,99.90
2023-04-21T21:42:21.191Z,99.90
2023-04-21T21:46:29.885Z,99.90
2023-04-21T21:50:38.757Z,99.90
2023-04-21T21:54:47.480Z,99.90
2023-04-21T21:58:56.220Z,98.80
2023-04-21T22:03:06.572Z,99.90
2023-04-21T22:07:15.934Z,73.10
2023-04-21T22:11:24.670Z,57.10
2023-04-21T22:15:35.284Z,49.30
2023-04-21T22:19:43.563Z,98.30
2023-04-21T22:23:52.149Z,99.90
2023-04-21T22:28:00.719Z,99.90
2023-04-21T22:32:09.717Z,99.90
2023-04-21T22:36:18.191Z,99.90
2023-04-21T22:40:26.767Z,76.90
2023-04-21T22:44:35.702Z,99.90
2023-04-21T22:48:45.894Z,99.90
2023-04-21T22:52:54.461Z,99.90
2023-04-21T22:57:03.440Z,99.90
2023-04-21T23:01:11.993Z,57.80
2023-04-21T23:05:20.574Z,99.90
2023-04-21T23:09:29.059Z,99.90
2023-04-21T23:13:37.809Z,99.90
2023-04-21T23:17:46.316Z,99.90
2023-04-21T23:21:54.931Z,99.90
2023-04-21T23:26:03.400Z,99.90
2023-04-21T23:30:12.657Z,99.90
2023-04-21T23:34:21.204Z,99.90
2023-04-21T23:38:29.701Z,99.90
2023-04-21T23:42:41.271Z,99.90
2023-04-21T23:46:49.833Z,99.90
2023-04-21T23:50:58.362Z,1.00
2023-04-21T23:55:08.068Z,1.00
2023-04-21T23:59:16.623Z,1.00
